Son Samurai — TC9565 — position and weather

sailwx.info

Track history (hours):
 
Tides and Currents Weather Stations Pressure Air Temp Water Temp Dewpoint Dewpoint Depression Visibility Wind Speed Wind Dir Waves Ship Positions

Son Samurai

Last reported at 2018-Apr-30 15:02 UTC. Time now 2018-Jun-18 09:27 UTC.
Position N 36°53' E 030°42'.
Warning: this ship's position is 48 days out of date.

Length 20 m.

Type: Pleasure craft. MMSI: 271042174.

Date/timePositionNaut miles runAvg speedWind from/ knotsBaromVisibWave heightAir tempDewpointWater temp
2018-Apr-30 15:02N 36°53' E 030°42'0 0.0
2018-Apr-30 14:56N 36°53' E 030°42'0 0.0
2018-Apr-30 12:41N 36°53' E 030°42'0 0.0
2018-Apr-30 12:23N 36°53' E 030°42'0 0.0
2018-Apr-30 11:53N 36°53' E 030°42'0 0.0
2018-Apr-30 11:29N 36°53' E 030°42'0 0.0
2018-Apr-30 05:17N 36°53' E 030°42'0 0.0
2018-Apr-29 15:01N 36°53' E 030°42'0 3.3
2018-Apr-29 14:59N 36°53' E 030°42'1 0.3
2018-Apr-29 13:06N 36°52' E 030°42'0 4.3
2018-Apr-29 12:59N 36°52' E 030°43'1 0.7
2018-Apr-29 11:38N 36°53' E 030°42'1 4.3
2018-Apr-29 11:29N 36°52' E 030°42'1 0.0
2018-Apr-27 08:17N 36°53' E 030°42'2 5.4
2018-Apr-27 07:59N 36°52' E 030°43'2 1.7
2018-Apr-27 07:00N 36°51' E 030°45'3 0.1
2018-Apr-25 09:24N 36°53' E 030°42'4 3.1
2018-Apr-25 08:13N 36°51' E 030°46'1 6.0
2018-Apr-25 08:00N 36°51' E 030°44'2 0.1
2018-Apr-23 13:46N 36°53' E 030°42'1 2.7
2018-Apr-23 13:28N 36°52' E 030°42'1 1.2
2018-Apr-23 12:49N 36°53' E 030°42'0 0.3
2018-Apr-23 12:14N 36°53' E 030°42'0 0.0
2018-Apr-23 11:50N 36°53' E 030°42'0 0.0
2018-Apr-23 11:26N 36°53' E 030°42'0 0.0
2018-Apr-23 10:56N 36°53' E 030°42'1 2.2
2018-Apr-23 10:29N 36°52' E 030°43'1 2.0
2018-Apr-23 10:00N 36°53' E 030°42'0 0.0
2018-Apr-23 08:48N 36°53' E 030°42'0 0.0
2018-Apr-23 08:30N 36°53' E 030°42'0 0.0
2018-Apr-23 04:15N 36°53' E 030°42'0 0.0
2018-Apr-23 03:57N 36°53' E 030°42'0 0.0
2018-Apr-23 03:09N 36°53' E 030°42'0 0.0
2018-Apr-23 02:39N 36°53' E 030°42'0 0.0
2018-Apr-23 02:27N 36°53' E 030°42'0 0.0
2018-Apr-23 02:00N 36°53' E 030°42'0 0.0
2018-Apr-23 01:30N 36°53' E 030°42'0 0.0
2018-Apr-23 01:00N 36°53' E 030°42'0 0.0
2018-Apr-23 00:27N 36°53' E 030°42'0 0.0
2018-Apr-23 00:00N 36°53' E 030°42'0 0.0
2018-Apr-22 23:30N 36°53' E 030°42'0 0.0
2018-Apr-22 23:00N 36°53' E 030°42'0 0.0
2018-Apr-22 22:30N 36°53' E 030°42'0 0.0
2018-Apr-22 22:00N 36°53' E 030°42'0 0.0
2018-Apr-22 21:30N 36°53' E 030°42'0 0.0
2018-Apr-22 20:54N 36°53' E 030°42'0 0.0
2018-Apr-22 20:18N 36°53' E 030°42'0 0.0
2018-Apr-22 19:54N 36°53' E 030°42'0 0.0
2018-Apr-22 19:30N 36°53' E 030°42'0 0.0
2018-Apr-22 19:00N 36°53' E 030°42'0 0.0
2018-Apr-22 18:12N 36°53' E 030°42'0 0.0
2018-Apr-22 18:00N 36°53' E 030°42'0 0.0
2018-Apr-22 17:30N 36°53' E 030°42'0 0.0
2018-Apr-22 16:48N 36°53' E 030°42'0 0.0
2018-Apr-22 16:30N 36°53' E 030°42'0 0.3
2018-Apr-22 15:52N 36°53' E 030°42'1 3.0
2018-Apr-22 15:30N 36°52' E 030°42'1 1.0
2018-Apr-22 14:22N 36°53' E 030°42'1 2.4
2018-Apr-22 13:56N 36°52' E 030°42'0 0.0
2018-Apr-21 12:53N 36°52' E 030°42'1 0.1
2018-Apr-21 07:10N 36°53' E 030°42'0 0.0
2018-Apr-21 06:58N 36°53' E 030°42'0 0.0
2018-Apr-20 18:40N 36°53' E 030°42'0 0.0
2018-Apr-20 18:04N 36°53' E 030°42'0 0.1
2018-Apr-20 17:58N 36°53' E 030°42'  
Track history (hours):
 
Tides and Currents Weather Stations Pressure Air Temp Water Temp Dewpoint Dewpoint Depression Visibility Wind Speed Wind Dir Waves Ship Positions

Son Samurai

Last reported at 2018-Apr-30 15:02 UTC. Time now 2018-Jun-18 09:27 UTC.
Position N 36°53' E 030°42'.
Warning: this ship's position is 48 days out of date.

Length 20 m.

Type: Pleasure craft. MMSI: 271042174.

Date/timePositionNaut miles runAvg speedWind from/ knotsBaromVisibWave heightAir tempDewpointWater temp
2018-Apr-30 15:02N 36°53' E 030°42'0 0.0
2018-Apr-30 14:56N 36°53' E 030°42'0 0.0
2018-Apr-30 12:41N 36°53' E 030°42'0 0.0
2018-Apr-30 12:23N 36°53' E 030°42'0 0.0
2018-Apr-30 11:53N 36°53' E 030°42'0 0.0
2018-Apr-30 11:29N 36°53' E 030°42'0 0.0
2018-Apr-30 05:17N 36°53' E 030°42'0 0.0
2018-Apr-29 15:01N 36°53' E 030°42'0 3.3
2018-Apr-29 14:59N 36°53' E 030°42'1 0.3
2018-Apr-29 13:06N 36°52' E 030°42'0 4.3
2018-Apr-29 12:59N 36°52' E 030°43'1 0.7
2018-Apr-29 11:38N 36°53' E 030°42'1 4.3
2018-Apr-29 11:29N 36°52' E 030°42'1 0.0
2018-Apr-27 08:17N 36°53' E 030°42'2 5.4
2018-Apr-27 07:59N 36°52' E 030°43'2 1.7
2018-Apr-27 07:00N 36°51' E 030°45'3 0.1
2018-Apr-25 09:24N 36°53' E 030°42'4 3.1
2018-Apr-25 08:13N 36°51' E 030°46'1 6.0
2018-Apr-25 08:00N 36°51' E 030°44'2 0.1
2018-Apr-23 13:46N 36°53' E 030°42'1 2.7
2018-Apr-23 13:28N 36°52' E 030°42'1 1.2
2018-Apr-23 12:49N 36°53' E 030°42'0 0.3
2018-Apr-23 12:14N 36°53' E 030°42'0 0.0
2018-Apr-23 11:50N 36°53' E 030°42'0 0.0
2018-Apr-23 11:26N 36°53' E 030°42'0 0.0
2018-Apr-23 10:56N 36°53' E 030°42'1 2.2
2018-Apr-23 10:29N 36°52' E 030°43'1 2.0
2018-Apr-23 10:00N 36°53' E 030°42'0 0.0
2018-Apr-23 08:48N 36°53' E 030°42'0 0.0
2018-Apr-23 08:30N 36°53' E 030°42'0 0.0
2018-Apr-23 04:15N 36°53' E 030°42'0 0.0
2018-Apr-23 03:57N 36°53' E 030°42'0 0.0
2018-Apr-23 03:09N 36°53' E 030°42'0 0.0
2018-Apr-23 02:39N 36°53' E 030°42'0 0.0
2018-Apr-23 02:27N 36°53' E 030°42'0 0.0
2018-Apr-23 02:00N 36°53' E 030°42'0 0.0
2018-Apr-23 01:30N 36°53' E 030°42'0 0.0
2018-Apr-23 01:00N 36°53' E 030°42'0 0.0
2018-Apr-23 00:27N 36°53' E 030°42'0 0.0
2018-Apr-23 00:00N 36°53' E 030°42'0 0.0
2018-Apr-22 23:30N 36°53' E 030°42'0 0.0
2018-Apr-22 23:00N 36°53' E 030°42'0 0.0
2018-Apr-22 22:30N 36°53' E 030°42'0 0.0
2018-Apr-22 22:00N 36°53' E 030°42'0 0.0
2018-Apr-22 21:30N 36°53' E 030°42'0 0.0
2018-Apr-22 20:54N 36°53' E 030°42'0 0.0
2018-Apr-22 20:18N 36°53' E 030°42'0 0.0
2018-Apr-22 19:54N 36°53' E 030°42'0 0.0
2018-Apr-22 19:30N 36°53' E 030°42'0 0.0
2018-Apr-22 19:00N 36°53' E 030°42'0 0.0
2018-Apr-22 18:12N 36°53' E 030°42'0 0.0
2018-Apr-22 18:00N 36°53' E 030°42'0 0.0
2018-Apr-22 17:30N 36°53' E 030°42'0 0.0
2018-Apr-22 16:48N 36°53' E 030°42'0 0.0
2018-Apr-22 16:30N 36°53' E 030°42'0 0.3
2018-Apr-22 15:52N 36°53' E 030°42'1 3.0
2018-Apr-22 15:30N 36°52' E 030°42'1 1.0
2018-Apr-22 14:22N 36°53' E 030°42'1 2.4
2018-Apr-22 13:56N 36°52' E 030°42'0 0.0
2018-Apr-21 12:53N 36°52' E 030°42'1 0.1
2018-Apr-21 07:10N 36°53' E 030°42'0 0.0
2018-Apr-21 06:58N 36°53' E 030°42'0 0.0
2018-Apr-20 18:40N 36°53' E 030°42'0 0.0
2018-Apr-20 18:04N 36°53' E 030°42'0 0.1
2018-Apr-20 17:58N 36°53' E 030°42'  

Dump ship's entire track history